createdAt,value
2019-05-14T00:01:51.422Z,10.20
2019-05-14T00:04:19.160Z,10.20
2019-05-14T00:06:46.733Z,10.10
2019-05-14T00:09:14.292Z,10.00
2019-05-14T00:11:42.270Z,10.00
2019-05-14T00:14:11.652Z,9.90
2019-05-14T00:16:39.423Z,9.90
2019-05-14T00:19:06.990Z,9.80
2019-05-14T00:21:34.594Z,9.70
2019-05-14T00:24:02.184Z,9.60
2019-05-14T00:26:31.737Z,9.50
2019-05-14T00:28:59.002Z,9.40
2019-05-14T00:31:26.514Z,9.40
2019-05-14T00:33:54.082Z,9.30
2019-05-14T00:36:21.694Z,9.30
2019-05-14T00:38:51.203Z,9.10
2019-05-14T00:41:18.544Z,8.90
2019-05-14T00:43:46.138Z,8.80
2019-05-14T00:46:13.649Z,8.80
2019-05-14T00:48:42.217Z,8.70
2019-05-14T00:51:11.096Z,8.70
2019-05-14T00:53:38.777Z,8.60
2019-05-14T00:56:06.391Z,8.30
2019-05-14T00:58:33.929Z,8.10
2019-05-14T01:01:01.788Z,7.90
2019-05-14T01:03:29.672Z,7.90
2019-05-14T01:05:58.963Z,7.90
2019-05-14T01:08:26.540Z,7.90
2019-05-14T01:10:54.119Z,7.90
2019-05-14T01:13:22.032Z,7.90
2019-05-14T01:15:51.895Z,7.90
2019-05-14T01:18:18.979Z,8.00
2019-05-14T01:20:46.556Z,8.00
2019-05-14T01:23:14.096Z,7.90
2019-05-14T01:25:42.243Z,8.00
2019-05-14T01:28:11.286Z,7.90
2019-05-14T01:30:40.987Z,7.80
2019-05-14T01:33:08.314Z,7.80
2019-05-14T01:35:35.866Z,7.80
2019-05-14T01:38:03.431Z,7.60
2019-05-14T01:40:31.649Z,7.40
2019-05-14T01:42:59.427Z,7.40
2019-05-14T01:45:28.325Z,7.40
2019-05-14T01:47:56.169Z,7.40
2019-05-14T01:50:23.714Z,7.40
2019-05-14T01:52:52.013Z,7.30
2019-05-14T01:55:21.846Z,7.30
2019-05-14T01:57:49.122Z,7.20
2019-05-14T02:00:16.692Z,7.10
2019-05-14T02:02:44.232Z,7.10
2019-05-14T02:05:12.504Z,7.00
2019-05-14T02:08:01.670Z,6.90
2019-05-14T02:10:28.909Z,6.90
2019-05-14T02:12:56.437Z,6.60
2019-05-14T02:15:36.318Z,6.50
2019-05-14T02:17:53.260Z,6.50
2019-05-14T02:20:21.605Z,6.40
2019-05-14T02:22:49.338Z,6.40
2019-05-14T02:25:16.879Z,6.50
2019-05-14T02:27:44.407Z,6.50
2019-05-14T02:30:11.984Z,6.50
2019-05-14T02:32:40.696Z,6.30
2019-05-14T02:35:09.927Z,6.20
2019-05-14T02:37:40.068Z,6.20
2019-05-14T02:40:09.808Z,6.20
2019-05-14T02:42:39.723Z,6.20
2019-05-14T02:45:08.886Z,6.10
2019-05-14T02:47:35.563Z,6.10
2019-05-14T02:50:03.358Z,6.00
2019-05-14T02:52:30.932Z,5.90
2019-05-14T02:54:59.721Z,5.80
2019-05-14T02:57:30.291Z,5.80
2019-05-14T02:59:59.711Z,5.80
2019-05-14T03:02:26.047Z,5.60
2019-05-14T03:04:53.577Z,5.70
2019-05-14T03:07:21.146Z,5.70
2019-05-14T03:09:50.200Z,5.80
2019-05-14T03:12:19.412Z,5.70
2019-05-14T03:14:49.953Z,5.50
2019-05-14T03:17:19.571Z,5.40
2019-05-14T03:19:49.305Z,5.40
2019-05-14T03:22:15.107Z,5.40
2019-05-14T03:24:42.673Z,5.40
2019-05-14T03:27:10.263Z,5.40
2019-05-14T03:29:39.822Z,5.50
2019-05-14T03:32:13.141Z,5.40
2019-05-14T03:34:41.985Z,5.30
2019-05-14T03:37:12.030Z,5.40
2019-05-14T03:39:35.034Z,5.30
2019-05-14T03:42:02.556Z,5.30
2019-05-14T03:44:30.108Z,5.30
2019-05-14T03:47:04.419Z,5.30
2019-05-14T03:49:28.891Z,5.30
2019-05-14T03:51:56.186Z,5.30
2019-05-14T03:54:23.722Z,5.30
2019-05-14T03:56:51.259Z,5.20
2019-05-14T03:59:19.929Z,5.20
2019-05-14T04:01:51.160Z,5.20
2019-05-14T04:04:19.469Z,5.20
2019-05-14T04:06:49.364Z,5.30
2019-05-14T04:09:15.672Z,5.20
2019-05-14T04:11:43.758Z,5.20
2019-05-14T04:14:11.497Z,5.20
2019-05-14T04:16:39.866Z,5.20
2019-05-14T04:19:09.942Z,5.10
2019-05-14T04:21:39.861Z,5.00
2019-05-14T04:24:09.605Z,5.00
2019-05-14T04:26:53.438Z,5.00
2019-05-14T04:29:04.862Z,5.10
2019-05-14T04:31:32.397Z,5.20
2019-05-14T04:34:01.665Z,5.30
2019-05-14T04:36:30.263Z,5.40
2019-05-14T04:39:00.584Z,5.30
2019-05-14T04:41:29.907Z,5.20
2019-05-14T04:43:59.502Z,5.20
2019-05-14T04:46:25.915Z,5.30
2019-05-14T04:48:53.446Z,5.40
2019-05-14T04:51:21.021Z,5.40
2019-05-14T04:53:49.816Z,5.40
2019-05-14T04:56:19.551Z,5.50
2019-05-14T04:58:49.672Z,5.60
2019-05-14T05:01:19.552Z,5.70
2019-05-14T05:03:45.961Z,5.80
2019-05-14T05:06:13.537Z,5.90
2019-05-14T05:08:41.080Z,5.90
2019-05-14T05:11:09.489Z,6.10
2019-05-14T05:13:39.648Z,6.20
2019-05-14T05:16:09.647Z,6.30
2019-05-14T05:18:36.250Z,6.40
2019-05-14T05:21:03.818Z,6.50
2019-05-14T05:23:31.408Z,6.70
2019-05-14T05:25:58.959Z,6.80
2019-05-14T05:28:28.282Z,7.00
2019-05-14T05:30:55.773Z,7.10
2019-05-14T05:33:23.334Z,7.10
2019-05-14T05:35:50.858Z,7.20
2019-05-14T05:38:18.489Z,7.30
2019-05-14T05:40:48.416Z,7.40
2019-05-14T05:43:15.310Z,7.50
2019-05-14T05:45:42.892Z,7.60
2019-05-14T05:48:10.438Z,7.60
2019-05-14T05:50:38.854Z,7.60
2019-05-14T05:53:08.853Z,7.70
2019-05-14T05:55:35.874Z,7.90
2019-05-14T05:58:03.420Z,8.00
2019-05-14T06:00:32.448Z,8.10
2019-05-14T06:02:59.986Z,8.30
2019-05-14T06:05:29.235Z,8.40
2019-05-14T06:07:59.066Z,8.50
2019-05-14T06:10:28.577Z,8.60
2019-05-14T06:12:55.505Z,8.60
2019-05-14T06:15:23.072Z,8.60
2019-05-14T06:17:50.598Z,8.50
2019-05-14T06:20:18.942Z,8.50
2019-05-14T06:22:48.780Z,8.60
2019-05-14T06:25:20.384Z,8.70
2019-05-14T06:27:45.250Z,8.80
2019-05-14T06:30:12.828Z,8.90
2019-05-14T06:32:40.394Z,9.00
2019-05-14T06:35:08.809Z,9.10
2019-05-14T06:37:38.509Z,9.30
2019-05-14T06:40:09.025Z,9.50
2019-05-14T06:42:39.183Z,9.70
2019-05-14T06:45:05.944Z,9.80
2019-05-14T06:47:33.516Z,9.90
2019-05-14T06:50:01.051Z,10.10
2019-05-14T06:52:29.106Z,10.20
2019-05-14T06:54:58.227Z,10.30
2019-05-14T06:57:28.377Z,10.40
2019-05-14T06:59:55.240Z,10.50
2019-05-14T07:02:22.842Z,10.60
2019-05-14T07:04:50.404Z,10.80
2019-05-14T07:07:20.483Z,11.00
2019-05-14T07:09:48.841Z,11.20
2019-05-14T07:12:18.938Z,11.30
2019-05-14T07:17:41.607Z,11.50
2019-05-14T07:20:09.164Z,11.60
2019-05-14T07:22:38.943Z,11.80
2019-05-14T07:25:09.520Z,11.80
2019-05-14T07:27:35.783Z,11.80
2019-05-14T07:30:04.419Z,11.90
2019-05-14T07:32:31.965Z,12.00
2019-05-14T07:34:59.680Z,12.20
2019-05-14T07:37:28.585Z,12.30
2019-05-14T07:39:57.969Z,12.40
2019-05-14T07:42:25.681Z,12.50
2019-05-14T07:44:53.215Z,12.70
2019-05-14T07:47:20.767Z,12.70
2019-05-14T07:49:48.999Z,12.80
2019-05-14T07:52:19.515Z,12.90
2019-05-14T07:54:48.026Z,13.10
2019-05-14T07:57:15.359Z,13.20
2019-05-14T07:59:42.903Z,13.30
2019-05-14T08:02:12.873Z,13.50
2019-05-14T08:04:39.730Z,13.60
2019-05-14T08:07:08.975Z,13.70
2019-05-14T08:09:38.712Z,13.80
2019-05-14T08:12:05.948Z,13.90
2019-05-14T08:14:41.895Z,14.00
2019-05-14T08:17:02.862Z,14.10
2019-05-14T08:19:33.945Z,14.10
2019-05-14T08:21:59.725Z,14.30
2019-05-14T08:24:29.947Z,14.20
2019-05-14T08:26:57.938Z,14.20
2019-05-14T08:29:25.618Z,14.30
2019-05-14T08:31:53.147Z,14.20
2019-05-14T08:34:20.721Z,14.10
2019-05-14T08:36:48.484Z,14.40
2019-05-14T08:39:18.371Z,14.70
2019-05-14T08:41:55.999Z,14.60
2019-05-14T08:44:14.733Z,14.50
2019-05-14T08:46:44.978Z,14.70
2019-05-14T08:49:11.562Z,14.70
2019-05-14T08:51:39.139Z,14.90
2019-05-14T08:54:08.248Z,15.20
2019-05-14T08:56:38.727Z,15.40
2019-05-14T08:59:05.221Z,15.50
2019-05-14T09:01:32.774Z,15.40
2019-05-14T09:04:00.353Z,15.00
2019-05-14T09:06:28.945Z,14.70
2019-05-14T09:08:59.303Z,15.00
2019-05-14T09:11:26.579Z,15.10
2019-05-14T09:13:55.265Z,15.10
2019-05-14T09:16:38.480Z,15.00
2019-05-14T09:18:52.086Z,15.00
2019-05-14T09:21:20.622Z,14.90
2019-05-14T09:23:48.419Z,14.90
2019-05-14T09:26:17.957Z,15.20
2019-05-14T09:28:45.272Z,15.60
2019-05-14T09:31:12.870Z,16.10
2019-05-14T09:33:40.469Z,16.70
2019-05-14T09:36:18.149Z,17.10
2019-05-14T09:38:41.934Z,17.30
2019-05-14T09:41:12.146Z,17.40
2019-05-14T09:43:35.837Z,17.30
2019-05-14T09:46:03.404Z,17.60
2019-05-14T09:48:30.940Z,17.20
2019-05-14T09:50:58.727Z,16.70
2019-05-14T09:53:28.682Z,16.20
2019-05-14T09:55:55.682Z,16.00
2019-05-14T09:58:23.238Z,15.80
2019-05-14T10:00:50.809Z,15.80
2019-05-14T10:03:19.263Z,15.70
2019-05-14T10:05:47.008Z,15.60
2019-05-14T10:08:14.593Z,15.60
2019-05-14T10:10:42.128Z,15.50
2019-05-14T10:13:09.925Z,15.40
2019-05-14T10:15:39.056Z,15.70
2019-05-14T10:18:11.024Z,16.90
2019-05-14T10:20:42.461Z,17.70
2019-05-14T10:23:05.347Z,18.00
2019-05-14T10:25:32.906Z,17.80
2019-05-14T10:28:00.522Z,17.70
2019-05-14T10:30:28.589Z,17.50
2019-05-14T10:32:56.312Z,18.10
2019-05-14T10:35:23.867Z,20.00
2019-05-14T10:37:54.382Z,22.30
2019-05-14T10:40:20.712Z,23.60
2019-05-14T10:42:49.475Z,25.60
2019-05-14T10:45:18.666Z,27.40
2019-05-14T10:47:46.412Z,27.80
2019-05-14T10:50:14.186Z,28.10
2019-05-14T10:52:41.863Z,28.60
2019-05-14T10:55:09.419Z,27.80
2019-05-14T10:57:36.978Z,27.10
2019-05-14T11:00:08.892Z,25.90
2019-05-14T11:02:38.783Z,25.80
2019-05-14T11:05:05.987Z,25.50
2019-05-14T11:07:33.531Z,25.20
2019-05-14T11:10:01.063Z,24.80
2019-05-14T11:12:29.715Z,24.70
2019-05-14T11:14:57.560Z,25.30
2019-05-14T11:17:25.100Z,25.90
2019-05-14T11:19:52.668Z,25.70
2019-05-14T11:22:20.211Z,24.50
2019-05-14T11:24:49.179Z,23.80
2019-05-14T11:27:18.676Z,23.90
2019-05-14T11:29:48.889Z,24.00
2019-05-14T11:32:18.273Z,25.50
2019-05-14T11:34:44.951Z,26.90
2019-05-14T11:37:12.534Z,27.20
2019-05-14T11:39:40.069Z,27.50
2019-05-14T11:42:08.480Z,28.40
2019-05-14T11:44:38.257Z,29.20
2019-05-14T11:47:05.828Z,29.50
2019-05-14T11:49:33.401Z,30.30
2019-05-14T11:52:07.825Z,29.90
2019-05-14T11:54:30.264Z,27.30
2019-05-14T11:56:58.947Z,25.20
2019-05-14T11:59:28.453Z,23.90
2019-05-14T12:01:59.129Z,23.80
2019-05-14T12:04:25.306Z,24.00
2019-05-14T12:06:52.856Z,24.60
2019-05-14T12:09:20.407Z,24.80
2019-05-14T12:11:47.961Z,23.90
2019-05-14T12:14:15.531Z,23.50
2019-05-14T12:16:43.092Z,24.50
2019-05-14T12:19:12.060Z,23.80
2019-05-14T12:21:39.997Z,24.30
2019-05-14T12:24:13.426Z,25.70
2019-05-14T12:26:38.561Z,27.00
2019-05-14T12:29:06.322Z,28.60
2019-05-14T12:31:33.878Z,30.20
2019-05-14T12:34:01.432Z,30.60
2019-05-14T12:36:29.427Z,31.10
2019-05-14T12:38:59.142Z,30.70
2019-05-14T12:41:28.759Z,31.50
2019-05-14T12:43:55.692Z,31.90
2019-05-14T12:46:23.236Z,31.30
2019-05-14T12:48:50.782Z,29.80
2019-05-14T12:51:18.675Z,28.60
2019-05-14T12:53:48.565Z,27.10
2019-05-14T12:56:18.566Z,24.70
2019-05-14T12:58:46.024Z,23.70
2019-05-14T13:01:13.672Z,25.50
2019-05-14T13:03:41.238Z,27.30
2019-05-14T13:06:09.957Z,28.00
2019-05-14T13:08:38.603Z,27.90
2019-05-14T13:11:09.343Z,29.00
2019-05-14T13:13:35.888Z,29.40
2019-05-14T13:16:04.515Z,30.50
2019-05-14T13:18:32.194Z,31.20
2019-05-14T13:20:59.728Z,31.20
2019-05-14T13:23:29.251Z,31.40
2019-05-14T13:25:58.999Z,30.30
2019-05-14T13:28:28.798Z,29.50
2019-05-14T13:30:55.105Z,28.70
2019-05-14T13:33:22.664Z,26.40
2019-05-14T13:35:50.226Z,24.50
2019-05-14T13:38:17.825Z,23.40
2019-05-14T13:40:45.632Z,25.30
2019-05-14T13:43:14.504Z,26.80
2019-05-14T13:45:42.332Z,26.70
2019-05-14T13:48:09.873Z,24.90
2019-05-14T13:50:40.067Z,23.00
2019-05-14T13:53:12.093Z,22.40
2019-05-14T13:55:36.018Z,22.40
2019-05-14T13:58:03.622Z,23.40
2019-05-14T14:00:31.173Z,24.10
2019-05-14T14:02:59.097Z,24.20
2019-05-14T14:05:26.822Z,24.10
2019-05-14T14:07:54.469Z,23.80
2019-05-14T14:10:22.030Z,23.60
2019-05-14T14:12:49.975Z,22.80
2019-05-14T14:15:17.636Z,21.40
2019-05-14T14:17:45.203Z,20.40
2019-05-14T14:20:12.732Z,19.60
2019-05-14T14:22:40.690Z,19.60
2019-05-14T14:25:08.960Z,20.10
2019-05-14T14:27:40.837Z,20.10
2019-05-14T14:30:08.999Z,20.00
2019-05-14T14:32:35.523Z,20.00
2019-05-14T14:35:03.089Z,20.50
2019-05-14T14:37:30.628Z,20.40
2019-05-14T14:39:59.323Z,20.60
2019-05-14T14:42:29.681Z,20.70
2019-05-14T14:44:56.335Z,20.50
2019-05-14T14:47:23.879Z,20.10
2019-05-14T14:49:52.206Z,19.60
2019-05-14T14:52:20.152Z,19.40
2019-05-14T14:54:48.874Z,19.00
2019-05-14T14:57:19.701Z,18.80
2019-05-14T14:59:48.336Z,19.10
2019-05-14T15:02:15.239Z,19.30
2019-05-14T15:04:42.798Z,19.70
2019-05-14T15:07:10.369Z,20.20
2019-05-14T15:09:40.274Z,20.50
2019-05-14T15:12:09.079Z,20.40
2019-05-14T15:14:39.304Z,20.20
2019-05-14T15:17:05.733Z,19.80
2019-05-14T15:19:33.272Z,19.30
2019-05-14T15:22:00.827Z,18.70
2019-05-14T15:24:28.407Z,18.60
2019-05-14T15:26:56.031Z,18.80
2019-05-14T15:29:23.689Z,19.20
2019-05-14T15:31:51.262Z,19.40
2019-05-14T15:34:19.148Z,19.30
2019-05-14T15:36:49.295Z,19.10
2019-05-14T15:39:19.038Z,18.80
2019-05-14T15:41:45.443Z,18.50
2019-05-14T15:44:12.984Z,18.30
2019-05-14T15:46:41.731Z,18.20
2019-05-14T15:49:09.698Z,18.00
2019-05-14T15:51:39.580Z,18.00
2019-05-14T15:54:31.169Z,17.90
2019-05-14T15:56:35.769Z,17.60
2019-05-14T15:59:03.321Z,17.40
2019-05-14T16:01:30.880Z,17.30
2019-05-14T16:03:58.822Z,17.40
2019-05-14T16:06:26.596Z,17.50
2019-05-14T16:08:54.174Z,17.70
2019-05-14T16:11:21.704Z,17.90
2019-05-14T16:13:49.588Z,18.00
2019-05-14T16:16:19.497Z,17.80
2019-05-14T16:18:48.038Z,17.50
2019-05-14T16:21:18.035Z,17.30
2019-05-14T16:23:45.066Z,17.20
2019-05-14T16:26:12.635Z,17.10
2019-05-14T16:28:40.187Z,16.90
2019-05-14T16:31:08.580Z,16.60
2019-05-14T16:33:40.055Z,16.50
2019-05-14T16:36:05.728Z,16.40
2019-05-14T16:38:33.287Z,16.40
2019-05-14T16:41:00.855Z,16.60
2019-05-14T16:43:31.571Z,16.60
2019-05-14T16:45:59.770Z,16.70
2019-05-14T16:48:28.989Z,16.60
2019-05-14T16:50:58.289Z,16.60
2019-05-14T16:53:25.559Z,16.60
2019-05-14T16:55:53.104Z,16.40
2019-05-14T16:58:20.664Z,16.30
2019-05-14T17:00:48.243Z,16.20
2019-05-14T17:03:18.866Z,16.00
2019-05-14T17:05:45.060Z,15.90
2019-05-14T17:08:12.742Z,15.80
2019-05-14T17:10:40.330Z,15.50
2019-05-14T17:13:09.088Z,15.30
2019-05-14T17:15:39.219Z,15.00
2019-05-14T17:18:08.656Z,14.90
2019-05-14T17:20:35.381Z,14.80
2019-05-14T17:23:02.948Z,14.80
2019-05-14T17:25:30.671Z,14.90
2019-05-14T17:27:59.320Z,15.00
2019-05-14T17:30:29.118Z,15.10
2019-05-14T17:32:58.755Z,15.10
2019-05-14T17:35:25.697Z,15.00
2019-05-14T17:37:53.222Z,15.00
2019-05-14T17:40:20.801Z,14.80
2019-05-14T17:42:48.816Z,14.80
2019-05-14T17:45:16.484Z,14.70
2019-05-14T17:47:44.019Z,14.60
2019-05-14T17:50:11.573Z,14.50
2019-05-14T17:52:43.323Z,14.40
2019-05-14T17:55:12.190Z,14.30
2019-05-14T17:57:45.271Z,14.20
2019-05-14T18:00:09.465Z,14.20
2019-05-14T18:02:37.248Z,14.30
2019-05-14T18:05:04.793Z,14.20
2019-05-14T18:07:32.328Z,14.20
2019-05-14T18:09:59.910Z,14.20
2019-05-14T18:12:30.600Z,14.20
2019-05-14T18:14:58.802Z,14.20
2019-05-14T18:17:26.002Z,14.10
2019-05-14T18:19:53.612Z,14.00
2019-05-14T18:22:21.138Z,13.90
2019-05-14T18:24:48.800Z,13.90
2019-05-14T18:27:16.424Z,13.90
2019-05-14T18:29:43.998Z,13.90
2019-05-14T18:32:11.550Z,13.80
2019-05-14T18:34:39.324Z,13.70
2019-05-14T18:37:13.509Z,13.60
2019-05-14T18:39:39.224Z,13.50
2019-05-14T18:42:08.147Z,13.50
2019-05-14T18:44:34.893Z,13.40
2019-05-14T18:47:02.466Z,13.30
2019-05-14T18:49:29.991Z,13.20
2019-05-14T18:51:59.297Z,13.20
2019-05-14T18:54:29.169Z,13.10
2019-05-14T18:56:56.223Z,13.10
2019-05-14T18:59:23.801Z,13.00
2019-05-14T19:01:53.872Z,13.00
2019-05-14T19:04:20.647Z,12.80
2019-05-14T19:06:48.385Z,12.70
2019-05-14T19:09:18.427Z,12.70
2019-05-14T19:11:45.267Z,12.60
2019-05-14T19:14:12.812Z,12.50
2019-05-14T19:16:40.383Z,12.40
2019-05-14T19:19:08.108Z,12.40
2019-05-14T19:21:38.067Z,12.30
2019-05-14T19:24:05.036Z,12.20
2019-05-14T19:26:36.753Z,12.20
2019-05-14T19:29:01.840Z,12.10
2019-05-14T19:31:29.394Z,11.90
2019-05-14T19:33:56.954Z,11.80
2019-05-14T19:36:24.566Z,11.80
2019-05-14T19:38:52.123Z,11.80
2019-05-14T19:41:22.853Z,11.80
2019-05-14T19:43:48.980Z,11.60
2019-05-14T19:46:16.516Z,11.60
2019-05-14T19:48:44.087Z,11.60
2019-05-14T19:51:11.625Z,11.60
2019-05-14T19:53:39.419Z,11.60
2019-05-14T19:56:07.094Z,11.50
2019-05-14T19:58:34.706Z,11.50
2019-05-14T20:01:02.331Z,11.40
2019-05-14T20:03:29.908Z,11.40
2019-05-14T20:05:57.448Z,11.40
2019-05-14T20:08:25.027Z,11.20
2019-05-14T20:10:52.552Z,11.30
2019-05-14T20:13:20.131Z,11.20
2019-05-14T20:15:48.655Z,11.10
2019-05-14T20:18:16.983Z,11.10
2019-05-14T20:20:44.632Z,11.10
2019-05-14T20:23:12.191Z,11.00
2019-05-14T20:25:39.803Z,11.00
2019-05-14T20:28:08.128Z,10.90
2019-05-14T20:30:38.471Z,11.00
2019-05-14T20:33:05.233Z,10.90
2019-05-14T20:35:34.958Z,10.90
2019-05-14T20:38:02.043Z,10.80
2019-05-14T20:40:29.605Z,10.80
2019-05-14T20:42:58.798Z,10.80
2019-05-14T20:45:28.803Z,10.70
2019-05-14T20:47:55.822Z,10.60
2019-05-14T20:50:23.342Z,10.50
2019-05-14T20:52:50.895Z,10.40
2019-05-14T20:55:19.075Z,10.40
2019-05-14T20:57:48.768Z,10.40
2019-05-14T21:00:18.109Z,10.30
2019-05-14T21:02:45.320Z,10.30
2019-05-14T21:05:13.808Z,10.30
2019-05-14T21:07:41.617Z,10.20
2019-05-14T21:10:09.210Z,10.20
2019-05-14T21:12:39.133Z,10.20
2019-05-14T21:15:08.788Z,10.10
2019-05-14T21:17:35.478Z,10.00
2019-05-14T21:20:03.591Z,10.10
2019-05-14T21:22:31.160Z,10.00
2019-05-14T21:24:58.690Z,10.00
2019-05-14T21:27:38.562Z,9.90
2019-05-14T21:29:55.539Z,9.80
2019-05-14T21:32:23.089Z,9.80
2019-05-14T21:34:50.625Z,9.80
2019-05-14T21:37:18.796Z,9.80
2019-05-14T21:39:48.891Z,9.80
2019-05-14T21:42:15.870Z,9.80
2019-05-14T21:44:43.427Z,9.70
2019-05-14T21:47:10.978Z,9.70
2019-05-14T21:49:38.996Z,9.70
2019-05-14T21:52:08.893Z,9.70
2019-05-14T21:54:36.003Z,9.60
2019-05-14T21:57:03.564Z,9.50
2019-05-14T21:59:31.197Z,9.50
2019-05-14T22:01:59.014Z,9.50
2019-05-14T22:04:28.863Z,9.50
2019-05-14T22:06:58.250Z,9.50
2019-05-14T22:09:25.236Z,9.50
2019-05-14T22:11:52.762Z,9.40
2019-05-14T22:14:20.303Z,9.40
2019-05-14T22:16:48.746Z,9.40
2019-05-14T22:19:16.294Z,9.40
2019-05-14T22:21:43.851Z,9.40
2019-05-14T22:24:11.394Z,9.40
2019-05-14T22:26:39.032Z,9.40
2019-05-14T22:29:08.365Z,9.30
2019-05-14T22:31:38.507Z,9.30
2019-05-14T22:34:05.275Z,9.30
2019-05-14T22:36:32.827Z,9.20
2019-05-14T22:39:00.362Z,9.10
2019-05-14T22:41:29.081Z,9.10
2019-05-14T22:43:59.725Z,9.00
2019-05-14T22:46:26.087Z,9.10
2019-05-14T22:48:53.641Z,9.00
2019-05-14T22:51:21.189Z,9.00
2019-05-14T22:53:49.442Z,8.90
2019-05-14T22:56:17.955Z,8.90
2019-05-14T22:58:45.504Z,8.90
2019-05-14T23:01:15.246Z,8.90
2019-05-14T23:03:42.327Z,8.90
2019-05-14T23:06:09.850Z,8.80
2019-05-14T23:08:39.107Z,8.80
2019-05-14T23:11:14.548Z,8.80
2019-05-14T23:13:42.107Z,8.80
2019-05-14T23:16:09.699Z,8.70
2019-05-14T23:18:38.004Z,8.60
2019-05-14T23:21:08.589Z,8.60
2019-05-14T23:23:35.032Z,8.70
2019-05-14T23:26:02.576Z,8.70
2019-05-14T23:28:41.846Z,8.60
2019-05-14T23:30:59.404Z,8.50
2019-05-14T23:33:28.831Z,8.50
2019-05-14T23:35:56.224Z,8.50
2019-05-14T23:38:23.968Z,8.50
2019-05-14T23:40:51.504Z,8.40
2019-05-14T23:43:19.097Z,8.40
2019-05-14T23:45:46.646Z,8.40
2019-05-14T23:48:14.202Z,8.30
2019-05-14T23:50:41.765Z,8.20
2019-05-14T23:53:09.483Z,8.10
2019-05-14T23:55:38.530Z,8.00
2019-05-14T23:58:08.375Z,7.90
